Terminal Aerodrome Forecast
Issued by NWS Northern Indiana

Home | Current Version | Previous Version | Graphics & Text | Print | Product List | Glossary On
Versions: 1 2 3 4 5 6 7 8 9 10 11 12 13
000
FTUS43 KIWX 020532
TAFFWA
TAF
KFWA 020532Z 0206/0306 35004KT P6SM SCT040 BKN200
     FM020900 04003KT 6SM BR SCT250
     FM021200 06006KT P6SM BKN020
     FM021400 07010KT P6SM SCT040
     FM022300 06010KT P6SM SCT250=

USA.gov is the U.S. government's official web portal to all federal, state and local government web resources and services.